sensor_id;sensor_type;location;lat;lon;timestamp;P1;durP1;ratioP1;P2;durP2;ratioP2
15151;SDS011;7676;50.900;6.234;2023-02-21T00:13:03;41.73;;;27.30;;
15151;SDS011;7676;50.900;6.234;2023-02-21T00:28:24;43.03;;;28.20;;
15151;SDS011;7676;50.900;6.234;2023-02-21T00:43:45;44.23;;;28.73;;
15151;SDS011;7676;50.900;6.234;2023-02-21T00:59:06;44.47;;;26.90;;
15151;SDS011;7676;50.900;6.234;2023-02-21T01:14:28;42.43;;;27.13;;
15151;SDS011;7676;50.900;6.234;2023-02-21T01:29:49;45.43;;;27.37;;
15151;SDS011;7676;50.900;6.234;2023-02-21T01:45:30;40.30;;;26.80;;
15151;SDS011;7676;50.900;6.234;2023-02-21T02:01:00;41.20;;;25.87;;
15151;SDS011;7676;50.900;6.234;2023-02-21T02:47:25;40.13;;;23.70;;
15151;SDS011;7676;50.900;6.234;2023-02-21T03:03:10;43.83;;;25.77;;
15151;SDS011;7676;50.900;6.234;2023-02-21T03:33:17;43.00;;;27.13;;
15151;SDS011;7676;50.900;6.234;2023-02-21T03:48:20;41.77;;;26.00;;
15151;SDS011;7676;50.900;6.234;2023-02-21T04:03:39;42.70;;;25.97;;
15151;SDS011;7676;50.900;6.234;2023-02-21T04:18:42;38.80;;;24.30;;
15151;SDS011;7676;50.900;6.234;2023-02-21T04:33:46;45.77;;;28.93;;
15151;SDS011;7676;50.900;6.234;2023-02-21T04:48:55;43.53;;;24.70;;
15151;SDS011;7676;50.900;6.234;2023-02-21T05:03:58;38.47;;;22.97;;
15151;SDS011;7676;50.900;6.234;2023-02-21T05:19:01;43.30;;;26.23;;
15151;SDS011;7676;50.900;6.234;2023-02-21T05:34:04;41.97;;;24.23;;
15151;SDS011;7676;50.900;6.234;2023-02-21T05:49:07;40.50;;;24.93;;
15151;SDS011;7676;50.900;6.234;2023-02-21T06:04:10;37.07;;;20.77;;
15151;SDS011;7676;50.900;6.234;2023-02-21T06:19:13;34.30;;;21.97;;
15151;SDS011;7676;50.900;6.234;2023-02-21T06:34:17;40.67;;;25.20;;
15151;SDS011;7676;50.900;6.234;2023-02-21T06:49:20;40.57;;;24.03;;
15151;SDS011;7676;50.900;6.234;2023-02-21T07:04:23;34.33;;;22.00;;
15151;SDS011;7676;50.900;6.234;2023-02-21T07:19:26;37.73;;;21.53;;
15151;SDS011;7676;50.900;6.234;2023-02-21T07:34:29;33.17;;;21.10;;
15151;SDS011;7676;50.900;6.234;2023-02-21T07:49:35;40.50;;;24.43;;
15151;SDS011;7676;50.900;6.234;2023-02-21T08:04:42;27.67;;;17.30;;
15151;SDS011;7676;50.900;6.234;2023-02-21T08:19:44;28.07;;;18.27;;
15151;SDS011;7676;50.900;6.234;2023-02-21T08:34:47;28.53;;;18.30;;
15151;SDS011;7676;50.900;6.234;2023-02-21T08:49:51;31.87;;;21.47;;
15151;SDS011;7676;50.900;6.234;2023-02-21T09:04:53;32.57;;;20.87;;
15151;SDS011;7676;50.900;6.234;2023-02-21T09:19:56;38.23;;;23.23;;
15151;SDS011;7676;50.900;6.234;2023-02-21T09:34:58;28.60;;;19.13;;
15151;SDS011;7676;50.900;6.234;2023-02-21T09:50:03;31.90;;;22.27;;
15151;SDS011;7676;50.900;6.234;2023-02-21T10:05:14;35.03;;;22.00;;
15151;SDS011;7676;50.900;6.234;2023-02-21T10:20:30;34.57;;;23.13;;
15151;SDS011;7676;50.900;6.234;2023-02-21T10:35:49;34.67;;;22.20;;
15151;SDS011;7676;50.900;6.234;2023-02-21T10:51:13;31.37;;;20.63;;
15151;SDS011;7676;50.900;6.234;2023-02-21T11:07:00;36.13;;;21.97;;
15151;SDS011;7676;50.900;6.234;2023-02-21T11:21:49;37.93;;;24.57;;
15151;SDS011;7676;50.900;6.234;2023-02-21T11:37:00;37.93;;;23.67;;
15151;SDS011;7676;50.900;6.234;2023-02-21T11:52:05;36.77;;;22.97;;
15151;SDS011;7676;50.900;6.234;2023-02-21T12:07:30;34.20;;;22.43;;
15151;SDS011;7676;50.900;6.234;2023-02-21T12:53:16;49.97;;;33.03;;
15151;SDS011;7676;50.900;6.234;2023-02-21T13:08:23;46.43;;;29.87;;
15151;SDS011;7676;50.900;6.234;2023-02-21T13:23:41;42.60;;;26.57;;
15151;SDS011;7676;50.900;6.234;2023-02-21T13:54:11;33.67;;;22.00;;
15151;SDS011;7676;50.900;6.234;2023-02-21T14:09:22;35.53;;;23.00;;
15151;SDS011;7676;50.900;6.234;2023-02-21T14:24:25;32.80;;;21.07;;
15151;SDS011;7676;50.900;6.234;2023-02-21T14:39:35;36.80;;;21.70;;
15151;SDS011;7676;50.900;6.234;2023-02-21T14:54:50;38.23;;;24.23;;
15151;SDS011;7676;50.900;6.234;2023-02-21T15:10:22;35.83;;;22.20;;
15151;SDS011;7676;50.900;6.234;2023-02-21T15:25:26;38.30;;;22.70;;
15151;SDS011;7676;50.900;6.234;2023-02-21T15:40:29;35.90;;;24.30;;
15151;SDS011;7676;50.900;6.234;2023-02-21T15:55:32;41.50;;;24.00;;
15151;SDS011;7676;50.900;6.234;2023-02-21T16:10:35;35.70;;;21.43;;
15151;SDS011;7676;50.900;6.234;2023-02-21T16:41:13;35.10;;;24.90;;
15151;SDS011;7676;50.900;6.234;2023-02-21T16:56:17;39.30;;;27.50;;
15151;SDS011;7676;50.900;6.234;2023-02-21T17:11:20;33.37;;;24.00;;
15151;SDS011;7676;50.900;6.234;2023-02-21T17:26:23;30.83;;;22.37;;
15151;SDS011;7676;50.900;6.234;2023-02-21T17:41:26;28.40;;;21.00;;
15151;SDS011;7676;50.900;6.234;2023-02-21T17:56:30;27.60;;;19.50;;
15151;SDS011;7676;50.900;6.234;2023-02-21T18:11:33;25.43;;;18.53;;
15151;SDS011;7676;50.900;6.234;2023-02-21T18:26:39;25.23;;;19.00;;
15151;SDS011;7676;50.900;6.234;2023-02-21T18:41:42;22.50;;;17.03;;
15151;SDS011;7676;50.900;6.234;2023-02-21T18:56:46;25.37;;;18.43;;
15151;SDS011;7676;50.900;6.234;2023-02-21T19:11:52;25.03;;;18.50;;
15151;SDS011;7676;50.900;6.234;2023-02-21T19:26:55;24.07;;;17.87;;
15151;SDS011;7676;50.900;6.234;2023-02-21T19:41:58;22.70;;;16.87;;
15151;SDS011;7676;50.900;6.234;2023-02-21T19:57:03;26.33;;;19.50;;
15151;SDS011;7676;50.900;6.234;2023-02-21T20:12:06;25.87;;;19.10;;
15151;SDS011;7676;50.900;6.234;2023-02-21T20:27:10;35.70;;;23.87;;
15151;SDS011;7676;50.900;6.234;2023-02-21T20:42:14;47.93;;;29.13;;
15151;SDS011;7676;50.900;6.234;2023-02-21T20:57:19;52.97;;;31.47;;
15151;SDS011;7676;50.900;6.234;2023-02-21T21:12:22;57.70;;;31.93;;
15151;SDS011;7676;50.900;6.234;2023-02-21T21:27:25;76.87;;;34.10;;
15151;SDS011;7676;50.900;6.234;2023-02-21T21:42:28;75.37;;;35.80;;
15151;SDS011;7676;50.900;6.234;2023-02-21T21:57:31;104.23;;;36.43;;
15151;SDS011;7676;50.900;6.234;2023-02-21T22:12:34;118.17;;;37.57;;
15151;SDS011;7676;50.900;6.234;2023-02-21T22:27:38;119.60;;;38.40;;
15151;SDS011;7676;50.900;6.234;2023-02-21T22:42:41;133.60;;;31.37;;
15151;SDS011;7676;50.900;6.234;2023-02-21T22:57:44;151.00;;;32.30;;
15151;SDS011;7676;50.900;6.234;2023-02-21T23:12:47;176.03;;;32.43;;
15151;SDS011;7676;50.900;6.234;2023-02-21T23:28:02;172.83;;;30.67;;
15151;SDS011;7676;50.900;6.234;2023-02-21T23:43:10;138.93;;;29.53;;
15151;SDS011;7676;50.900;6.234;2023-02-21T23:58:14;218.40;;;30.47;;
